createdAt,value
2023-04-10T00:04:22.260Z,78.55
2023-04-10T00:09:25.079Z,78.26
2023-04-10T00:14:27.655Z,78.87
2023-04-10T00:19:31.566Z,79.02
2023-04-10T00:24:34.143Z,79.25
2023-04-10T00:29:36.683Z,79.39
2023-04-10T00:34:40.765Z,79.51
2023-04-10T00:39:43.305Z,78.95
2023-04-10T00:44:46.014Z,79.32
2023-04-10T00:49:50.328Z,79.36
2023-04-10T00:54:53.015Z,79.36
2023-04-10T00:59:56.038Z,79.00
2023-04-10T01:05:00.012Z,79.61
2023-04-10T01:10:10.476Z,79.48
2023-04-10T01:15:17.168Z,79.40
2023-04-10T01:20:23.394Z,79.93
2023-04-10T01:25:41.236Z,80.90
2023-04-10T01:30:49.576Z,80.52
2023-04-10T01:35:56.673Z,80.28
2023-04-10T01:41:01.124Z,79.89
2023-04-10T01:46:07.671Z,80.28
2023-04-10T01:51:11.564Z,81.06
2023-04-10T01:56:14.442Z,81.17
2023-04-10T02:01:29.606Z,82.34
2023-04-10T02:06:50.439Z,82.36
2023-04-10T02:12:00.246Z,82.25
2023-04-10T02:17:05.626Z,83.07
2023-04-10T02:22:08.615Z,82.38
2023-04-10T02:27:11.160Z,82.95
2023-04-10T02:32:17.240Z,82.68
2023-04-10T02:37:22.373Z,83.31
2023-04-10T02:42:25.683Z,83.13
2023-04-10T02:47:33.132Z,83.10
2023-04-10T02:52:35.911Z,83.71
2023-04-10T02:57:38.843Z,82.39
2023-04-10T03:02:42.940Z,81.99
2023-04-10T03:07:53.894Z,82.93
2023-04-10T03:12:56.563Z,83.50
2023-04-10T03:18:00.602Z,83.92
2023-04-10T03:23:03.468Z,84.61
2023-04-10T03:28:08.000Z,84.56
2023-04-10T03:33:11.949Z,85.60
2023-04-10T03:38:14.700Z,86.20
2023-04-10T03:43:17.271Z,86.53
2023-04-10T03:48:21.711Z,86.72
2023-04-10T03:53:24.656Z,87.01
2023-04-10T03:58:29.404Z,87.51
2023-04-10T04:03:33.996Z,86.93
2023-04-10T04:08:38.540Z,87.25
2023-04-10T04:13:56.240Z,87.88
2023-04-10T04:19:23.058Z,87.88
2023-04-10T04:24:41.914Z,87.99
2023-04-10T04:29:54.707Z,88.73
2023-04-10T04:35:10.503Z,88.51
2023-04-10T04:40:39.032Z,88.65
2023-04-10T04:46:01.937Z,88.65
2023-04-10T04:51:26.051Z,87.92
2023-04-10T04:56:39.740Z,87.88
2023-04-10T05:02:14.616Z,88.20
2023-04-10T05:07:25.197Z,88.77
2023-04-10T05:12:41.775Z,88.32
2023-04-10T05:18:03.241Z,89.67
2023-04-10T05:23:10.948Z,88.91
2023-04-10T05:28:32.413Z,88.28
2023-04-10T05:33:34.950Z,87.96
2023-04-10T05:38:45.608Z,87.70
2023-04-10T05:44:23.511Z,87.44
2023-04-10T05:49:53.022Z,87.07
2023-04-10T05:55:13.589Z,86.56
2023-04-10T06:00:48.298Z,86.23
2023-04-10T06:06:18.339Z,84.93
2023-04-10T06:11:22.508Z,84.27
2023-04-10T06:16:28.940Z,83.70
2023-04-10T06:21:31.648Z,81.85
2023-04-10T06:26:35.651Z,81.34
2023-04-10T06:31:39.944Z,80.71
2023-04-10T06:36:43.619Z,80.99
2023-04-10T06:41:47.579Z,79.59
2023-04-10T06:47:06.834Z,78.99
2023-04-10T06:52:11.216Z,77.96
2023-04-10T06:57:15.896Z,77.62
2023-04-10T07:02:18.585Z,76.59
2023-04-10T07:07:21.270Z,76.89
2023-04-10T07:12:25.275Z,75.33
2023-04-10T07:17:28.012Z,75.52
2023-04-10T07:22:30.831Z,76.32
2023-04-10T07:27:34.817Z,76.86
2023-04-10T07:32:39.662Z,75.68
2023-04-10T07:37:43.935Z,75.96
2023-04-10T07:42:47.875Z,75.92
2023-04-10T07:47:50.439Z,75.08
2023-04-10T07:52:53.341Z,73.99
2023-04-10T07:57:57.328Z,73.29
2023-04-10T08:03:00.907Z,71.63
2023-04-10T08:08:03.792Z,71.84
2023-04-10T08:13:07.860Z,72.30
2023-04-10T08:18:10.448Z,71.50
2023-04-10T08:23:20.439Z,71.02
2023-04-10T08:28:25.480Z,71.72
2023-04-10T08:33:28.035Z,71.31
2023-04-10T08:38:30.601Z,70.31
2023-04-10T08:43:35.415Z,71.90
2023-04-10T08:48:42.645Z,71.79
2023-04-10T08:53:45.781Z,71.05
2023-04-10T08:58:53.583Z,70.73
2023-04-10T09:03:56.875Z,70.27
2023-04-10T09:14:08.024Z,70.45
2023-04-10T09:19:11.264Z,70.39
2023-04-10T09:24:14.296Z,71.53
2023-04-10T09:29:18.319Z,69.68
2023-04-10T09:34:22.381Z,69.77
2023-04-10T09:45:53.730Z,69.52
2023-04-10T09:50:57.797Z,67.79
2023-04-10T09:56:01.991Z,69.09
2023-04-10T10:01:06.561Z,69.26
2023-04-10T10:06:09.603Z,73.99
2023-04-10T10:11:17.974Z,79.60
2023-04-10T10:16:30.304Z,68.23
2023-04-10T10:21:34.182Z,68.71
2023-04-10T10:26:39.837Z,71.70
2023-04-10T10:31:44.400Z,67.95
2023-04-10T10:36:51.796Z,66.58
2023-04-10T10:42:01.341Z,69.04
2023-04-10T10:47:11.310Z,69.79
2023-04-10T10:52:14.012Z,70.34
2023-04-10T10:57:47.232Z,70.60
2023-04-10T11:03:30.021Z,70.22
2023-04-10T11:08:44.132Z,65.63
2023-04-10T11:14:15.865Z,72.82
2023-04-10T11:19:23.570Z,70.54
2023-04-10T11:24:27.803Z,67.38
2023-04-10T11:29:35.028Z,68.33
2023-04-10T11:34:45.462Z,62.61
2023-04-10T11:39:48.364Z,64.08
2023-04-10T11:44:52.057Z,63.94
2023-04-10T11:49:58.734Z,62.38
2023-04-10T11:55:02.113Z,64.93
2023-04-10T12:00:06.675Z,63.63
2023-04-10T12:05:11.258Z,62.07
2023-04-10T12:10:14.552Z,65.99
2023-04-10T12:15:27.930Z,65.97
2023-04-10T12:20:32.363Z,65.18
2023-04-10T12:25:35.609Z,62.87
2023-04-10T12:30:39.084Z,64.51
2023-04-10T12:35:43.747Z,60.49
2023-04-10T12:40:59.270Z,59.86
2023-04-10T12:46:02.332Z,60.98
2023-04-10T12:51:06.814Z,59.97
2023-04-10T12:56:09.818Z,60.34
2023-04-10T13:01:14.145Z,61.04
2023-04-10T13:06:19.346Z,59.55
2023-04-10T13:11:22.995Z,61.88
2023-04-10T13:16:25.579Z,61.38
2023-04-10T13:21:30.388Z,61.30
2023-04-10T13:26:33.253Z,61.64
2023-04-10T13:31:36.039Z,61.99
2023-04-10T13:36:40.108Z,60.82
2023-04-10T13:41:42.779Z,64.30
2023-04-10T13:46:45.436Z,62.29
2023-04-10T13:51:49.873Z,62.16
2023-04-10T13:56:54.418Z,62.46
2023-04-10T14:01:57.385Z,61.12
2023-04-10T14:07:02.045Z,58.67
2023-04-10T14:12:04.924Z,57.55
2023-04-10T14:17:07.852Z,59.34
2023-04-10T14:22:11.726Z,61.28
2023-04-10T14:27:14.706Z,65.05
2023-04-10T14:32:17.809Z,63.17
2023-04-10T14:37:22.423Z,62.04
2023-04-10T14:42:25.154Z,64.46
2023-04-10T14:47:28.538Z,60.22
2023-04-10T14:52:32.684Z,68.73
2023-04-10T14:57:36.063Z,67.47
2023-04-10T15:02:38.835Z,70.24
2023-04-10T15:07:42.782Z,66.97
2023-04-10T15:12:45.355Z,66.81
2023-04-10T15:17:48.384Z,65.22
2023-04-10T15:22:52.391Z,66.12
2023-04-10T15:27:56.145Z,67.72
2023-04-10T15:32:59.343Z,67.67
2023-04-10T15:38:03.370Z,74.28
2023-04-10T15:43:06.525Z,71.78
2023-04-10T15:48:09.749Z,68.51
2023-04-10T15:53:15.111Z,70.65
2023-04-10T15:58:20.358Z,68.56
2023-04-10T16:03:23.274Z,70.16
2023-04-10T16:08:28.603Z,66.67
2023-04-10T16:13:31.370Z,66.30
2023-04-10T16:18:33.900Z,74.97
2023-04-10T16:23:37.846Z,80.14
2023-04-10T16:28:40.588Z,83.11
2023-04-10T16:33:43.365Z,86.30
2023-04-10T16:38:49.860Z,84.56
2023-04-10T16:43:53.012Z,85.01
2023-04-10T16:48:55.669Z,85.00
2023-04-10T16:53:59.693Z,86.72
2023-04-10T16:59:02.253Z,92.28
2023-04-10T17:04:04.918Z,92.91
2023-04-10T17:09:09.245Z,93.19
2023-04-10T17:21:00.536Z,95.44
2023-04-10T17:26:05.779Z,97.13
2023-04-10T17:31:08.728Z,96.14
2023-04-10T17:36:12.751Z,97.85
2023-04-10T17:41:17.067Z,98.92
2023-04-10T17:46:19.624Z,98.48
2023-04-10T17:51:22.139Z,100.00
2023-04-10T17:56:26.082Z,100.00
2023-04-10T18:01:30.081Z,98.77
2023-04-10T18:06:32.821Z,99.94
2023-04-10T18:11:36.828Z,100.00
2023-04-10T18:16:39.779Z,100.00
2023-04-10T18:21:42.562Z,100.00
2023-04-10T18:26:48.224Z,100.00
2023-04-10T18:31:51.336Z,100.00
2023-04-10T18:36:55.420Z,100.00
2023-04-10T18:42:02.448Z,100.00
2023-04-10T18:47:05.484Z,100.00
2023-04-10T18:52:08.327Z,100.00
2023-04-10T18:57:13.383Z,100.00
2023-04-10T19:02:16.139Z,100.00
2023-04-10T19:07:18.788Z,100.00
2023-04-10T19:12:22.760Z,100.00
2023-04-10T19:17:25.462Z,100.00
2023-04-10T19:22:28.413Z,100.00
2023-04-10T19:27:32.609Z,100.00
2023-04-10T19:32:35.752Z,100.00
2023-04-10T19:37:39.005Z,100.00
2023-04-10T19:42:43.221Z,100.00
2023-04-10T19:47:46.024Z,100.00
2023-04-10T19:52:48.814Z,100.00
2023-04-10T19:57:53.291Z,100.00
2023-04-10T20:02:56.744Z,100.00
2023-04-10T20:08:01.249Z,100.00
2023-04-10T20:13:06.425Z,100.00
2023-04-10T20:18:09.977Z,100.00
2023-04-10T20:23:14.716Z,100.00
2023-04-10T20:28:23.197Z,100.00
2023-04-10T20:33:28.665Z,100.00
2023-04-10T20:38:33.722Z,100.00
2023-04-10T20:43:38.808Z,100.00
2023-04-10T20:48:42.526Z,100.00
2023-04-10T20:53:46.777Z,100.00
2023-04-10T20:58:55.179Z,100.00
2023-04-10T21:03:59.409Z,100.00
2023-04-10T21:09:03.150Z,100.00
2023-04-10T21:14:08.223Z,100.00
2023-04-10T21:19:11.733Z,100.00
2023-04-10T21:24:15.986Z,100.00
2023-04-10T21:29:21.325Z,100.00
2023-04-10T21:34:24.012Z,100.00
2023-04-10T21:39:26.691Z,100.00
2023-04-10T21:44:30.558Z,100.00
2023-04-10T21:49:33.161Z,100.00
2023-04-10T21:54:35.705Z,100.00
2023-04-10T21:59:39.621Z,100.00
2023-04-10T22:04:54.069Z,100.00
2023-04-10T22:09:57.671Z,100.00
2023-04-10T22:15:01.801Z,100.00
2023-04-10T22:20:05.540Z,100.00
2023-04-10T22:25:08.967Z,100.00
2023-04-10T22:30:13.847Z,100.00
2023-04-10T22:35:16.888Z,100.00
2023-04-10T22:40:19.518Z,100.00
2023-04-10T22:45:23.396Z,100.00
2023-04-10T22:50:25.936Z,100.00
2023-04-10T22:55:28.462Z,100.00
2023-04-10T23:00:33.798Z,100.00
2023-04-10T23:05:36.382Z,100.00
2023-04-10T23:10:39.046Z,100.00
2023-04-10T23:15:49.290Z,100.00
2023-04-10T23:20:51.877Z,100.00
2023-04-10T23:25:58.868Z,100.00
2023-04-10T23:31:02.862Z,100.00
2023-04-10T23:36:06.406Z,100.00
2023-04-10T23:41:09.113Z,100.00
2023-04-10T23:46:12.990Z,100.00
2023-04-10T23:51:15.536Z,100.00
2023-04-10T23:56:18.141Z,100.00
